sensor_id;sensor_type;location;lat;lon;timestamp;temperature;humidity
15105;DHT22;7653;48.994;9.212;2023-03-04T00:00:37;1.60;50.50
15105;DHT22;7653;48.994;9.212;2023-03-04T00:03:08;1.50;49.30
15105;DHT22;7653;48.994;9.212;2023-03-04T00:05:36;1.30;48.80
15105;DHT22;7653;48.994;9.212;2023-03-04T00:08:02;1.30;50.10
15105;DHT22;7653;48.994;9.212;2023-03-04T00:10:27;1.20;50.30
15105;DHT22;7653;48.994;9.212;2023-03-04T00:12:53;1.20;50.40
15105;DHT22;7653;48.994;9.212;2023-03-04T00:15:19;1.00;50.00
15105;DHT22;7653;48.994;9.212;2023-03-04T00:17:44;0.80;51.40
15105;DHT22;7653;48.994;9.212;2023-03-04T00:20:11;0.80;53.10
15105;DHT22;7653;48.994;9.212;2023-03-04T00:22:37;1.00;54.60
15105;DHT22;7653;48.994;9.212;2023-03-04T00:25:03;0.70;52.90
15105;DHT22;7653;48.994;9.212;2023-03-04T00:27:29;0.50;53.70
15105;DHT22;7653;48.994;9.212;2023-03-04T00:29:55;0.50;55.50
15105;DHT22;7653;48.994;9.212;2023-03-04T00:32:21;0.60;55.60
15105;DHT22;7653;48.994;9.212;2023-03-04T00:34:47;0.70;55.30
15105;DHT22;7653;48.994;9.212;2023-03-04T00:37:13;0.70;54.20
15105;DHT22;7653;48.994;9.212;2023-03-04T00:39:39;0.70;53.60
15105;DHT22;7653;48.994;9.212;2023-03-04T00:42:04;0.70;53.10
15105;DHT22;7653;48.994;9.212;2023-03-04T00:44:30;0.70;54.20
15105;DHT22;7653;48.994;9.212;2023-03-04T00:46:55;0.60;53.00
15105;DHT22;7653;48.994;9.212;2023-03-04T00:49:21;0.60;53.00
15105;DHT22;7653;48.994;9.212;2023-03-04T00:51:47;0.50;52.90
15105;DHT22;7653;48.994;9.212;2023-03-04T00:54:13;0.40;52.80
15105;DHT22;7653;48.994;9.212;2023-03-04T00:56:38;0.30;52.70
15105;DHT22;7653;48.994;9.212;2023-03-04T00:59:04;0.20;54.60
15105;DHT22;7653;48.994;9.212;2023-03-04T01:01:29;0.20;55.30
15105;DHT22;7653;48.994;9.212;2023-03-04T01:03:55;0.10;55.40
15105;DHT22;7653;48.994;9.212;2023-03-04T01:06:21;0.20;57.10
15105;DHT22;7653;48.994;9.212;2023-03-04T01:08:46;0.10;56.30
15105;DHT22;7653;48.994;9.212;2023-03-04T01:11:12;0.10;56.60
15105;DHT22;7653;48.994;9.212;2023-03-04T01:13:38;0.20;58.40
15105;DHT22;7653;48.994;9.212;2023-03-04T01:16:05;0.20;57.10
15105;DHT22;7653;48.994;9.212;2023-03-04T01:18:31;0.20;57.20
15105;DHT22;7653;48.994;9.212;2023-03-04T01:20:56;0.00;56.30
15105;DHT22;7653;48.994;9.212;2023-03-04T01:23:22;0.10;57.20
15105;DHT22;7653;48.994;9.212;2023-03-04T01:25:48;0.00;56.80
15105;DHT22;7653;48.994;9.212;2023-03-04T01:28:14;0.00;55.80
15105;DHT22;7653;48.994;9.212;2023-03-04T01:30:39;-0.10;54.90
15105;DHT22;7653;48.994;9.212;2023-03-04T01:33:05;-0.10;55.70
15105;DHT22;7653;48.994;9.212;2023-03-04T01:35:31;-0.30;55.90
15105;DHT22;7653;48.994;9.212;2023-03-04T01:37:56;-0.30;56.20
15105;DHT22;7653;48.994;9.212;2023-03-04T01:40:22;-0.20;57.20
15105;DHT22;7653;48.994;9.212;2023-03-04T01:42:48;-0.30;56.50
15105;DHT22;7653;48.994;9.212;2023-03-04T01:45:15;-0.40;56.30
15105;DHT22;7653;48.994;9.212;2023-03-04T01:47:43;-0.40;56.80
15105;DHT22;7653;48.994;9.212;2023-03-04T01:50:25;-0.30;58.40
15105;DHT22;7653;48.994;9.212;2023-03-04T01:52:52;-0.20;57.50
15105;DHT22;7653;48.994;9.212;2023-03-04T01:55:19;-0.20;57.00
15105;DHT22;7653;48.994;9.212;2023-03-04T01:57:46;-0.20;57.90
15105;DHT22;7653;48.994;9.212;2023-03-04T02:00:32;-0.40;56.30
15105;DHT22;7653;48.994;9.212;2023-03-04T02:03:01;-0.50;57.70
15105;DHT22;7653;48.994;9.212;2023-03-04T02:05:29;-0.50;58.70
15105;DHT22;7653;48.994;9.212;2023-03-04T02:07:56;-0.50;59.40
15105;DHT22;7653;48.994;9.212;2023-03-04T02:10:23;-0.60;60.90
15105;DHT22;7653;48.994;9.212;2023-03-04T02:12:49;-0.50;61.20
15105;DHT22;7653;48.994;9.212;2023-03-04T02:15:15;-0.50;59.00
15105;DHT22;7653;48.994;9.212;2023-03-04T02:17:41;-0.60;59.00
15105;DHT22;7653;48.994;9.212;2023-03-04T02:23:05;-0.50;61.20
15105;DHT22;7653;48.994;9.212;2023-03-04T02:28:15;-0.30;61.40
15105;DHT22;7653;48.994;9.212;2023-03-04T02:30:41;-0.40;59.70
15105;DHT22;7653;48.994;9.212;2023-03-04T02:33:15;-0.50;59.20
15105;DHT22;7653;48.994;9.212;2023-03-04T02:35:41;-0.60;58.10
15105;DHT22;7653;48.994;9.212;2023-03-04T02:38:08;-1.00;60.10
15105;DHT22;7653;48.994;9.212;2023-03-04T02:40:34;-0.90;60.90
15105;DHT22;7653;48.994;9.212;2023-03-04T02:43:00;-1.20;60.60
15105;DHT22;7653;48.994;9.212;2023-03-04T02:45:34;-1.20;63.10
15105;DHT22;7653;48.994;9.212;2023-03-04T02:48:00;-1.30;62.80
15105;DHT22;7653;48.994;9.212;2023-03-04T02:50:27;-1.30;64.00
15105;DHT22;7653;48.994;9.212;2023-03-04T02:52:54;-1.30;63.00
15105;DHT22;7653;48.994;9.212;2023-03-04T02:55:19;-1.40;61.90
15105;DHT22;7653;48.994;9.212;2023-03-04T02:57:45;-1.40;62.30
15105;DHT22;7653;48.994;9.212;2023-03-04T03:00:11;-1.40;62.90
15105;DHT22;7653;48.994;9.212;2023-03-04T03:02:37;-1.30;62.90
15105;DHT22;7653;48.994;9.212;2023-03-04T03:05:03;-1.20;62.90
15105;DHT22;7653;48.994;9.212;2023-03-04T03:07:28;-1.30;60.50
15105;DHT22;7653;48.994;9.212;2023-03-04T03:09:54;-1.30;60.50
15105;DHT22;7653;48.994;9.212;2023-03-04T03:12:20;-1.40;61.30
15105;DHT22;7653;48.994;9.212;2023-03-04T03:14:45;-1.40;61.80
15105;DHT22;7653;48.994;9.212;2023-03-04T03:17:11;-1.50;61.80
15105;DHT22;7653;48.994;9.212;2023-03-04T03:19:36;-1.60;62.30
15105;DHT22;7653;48.994;9.212;2023-03-04T03:22:02;-1.60;61.30
15105;DHT22;7653;48.994;9.212;2023-03-04T03:24:28;-1.70;61.20
15105;DHT22;7653;48.994;9.212;2023-03-04T03:26:53;-1.70;60.80
15105;DHT22;7653;48.994;9.212;2023-03-04T03:29:19;-1.70;60.90
15105;DHT22;7653;48.994;9.212;2023-03-04T03:31:44;-1.80;62.50
15105;DHT22;7653;48.994;9.212;2023-03-04T03:34:10;-1.80;63.00
15105;DHT22;7653;48.994;9.212;2023-03-04T03:36:36;-1.90;63.10
15105;DHT22;7653;48.994;9.212;2023-03-04T03:39:01;-1.90;63.10
15105;DHT22;7653;48.994;9.212;2023-03-04T03:41:27;-1.90;62.30
15105;DHT22;7653;48.994;9.212;2023-03-04T03:43:52;-1.70;61.60
15105;DHT22;7653;48.994;9.212;2023-03-04T03:46:18;-1.80;60.10
15105;DHT22;7653;48.994;9.212;2023-03-04T03:48:44;-1.90;60.00
15105;DHT22;7653;48.994;9.212;2023-03-04T03:51:09;-2.00;60.00
15105;DHT22;7653;48.994;9.212;2023-03-04T03:53:35;-2.10;61.10
15105;DHT22;7653;48.994;9.212;2023-03-04T03:56:00;-2.10;64.10
15105;DHT22;7653;48.994;9.212;2023-03-04T03:58:26;-2.00;64.50
15105;DHT22;7653;48.994;9.212;2023-03-04T04:00:52;-2.00;64.40
15105;DHT22;7653;48.994;9.212;2023-03-04T04:03:18;-2.10;63.50
15105;DHT22;7653;48.994;9.212;2023-03-04T04:05:43;-2.10;63.80
15105;DHT22;7653;48.994;9.212;2023-03-04T04:08:13;-2.10;63.20
15105;DHT22;7653;48.994;9.212;2023-03-04T04:10:40;-2.10;62.90
15105;DHT22;7653;48.994;9.212;2023-03-04T04:13:06;-2.20;62.70
15105;DHT22;7653;48.994;9.212;2023-03-04T04:15:31;-2.10;62.30
15105;DHT22;7653;48.994;9.212;2023-03-04T04:17:57;-2.10;62.10
15105;DHT22;7653;48.994;9.212;2023-03-04T04:20:22;-2.20;61.50
15105;DHT22;7653;48.994;9.212;2023-03-04T04:22:48;-2.20;61.10
15105;DHT22;7653;48.994;9.212;2023-03-04T04:25:14;-2.30;60.50
15105;DHT22;7653;48.994;9.212;2023-03-04T04:27:39;-2.40;60.60
15105;DHT22;7653;48.994;9.212;2023-03-04T04:30:05;-2.40;61.40
15105;DHT22;7653;48.994;9.212;2023-03-04T04:32:31;-2.40;61.10
15105;DHT22;7653;48.994;9.212;2023-03-04T04:34:57;-2.40;61.50
15105;DHT22;7653;48.994;9.212;2023-03-04T04:37:22;-2.40;61.40
15105;DHT22;7653;48.994;9.212;2023-03-04T04:39:48;-2.40;61.00
15105;DHT22;7653;48.994;9.212;2023-03-04T04:42:16;-2.50;61.80
15105;DHT22;7653;48.994;9.212;2023-03-04T04:44:41;-2.50;61.80
15105;DHT22;7653;48.994;9.212;2023-03-04T04:47:08;-2.60;61.50
15105;DHT22;7653;48.994;9.212;2023-03-04T04:49:34;-2.60;63.00
15105;DHT22;7653;48.994;9.212;2023-03-04T04:52:00;-2.70;62.70
15105;DHT22;7653;48.994;9.212;2023-03-04T04:54:25;-2.70;63.40
15105;DHT22;7653;48.994;9.212;2023-03-04T04:56:51;-2.70;63.90
15105;DHT22;7653;48.994;9.212;2023-03-04T04:59:17;-2.60;63.40
15105;DHT22;7653;48.994;9.212;2023-03-04T05:01:42;-2.80;61.90
15105;DHT22;7653;48.994;9.212;2023-03-04T05:04:08;-2.80;63.00
15105;DHT22;7653;48.994;9.212;2023-03-04T05:06:34;-2.70;63.30
15105;DHT22;7653;48.994;9.212;2023-03-04T05:08:59;-2.80;63.30
15105;DHT22;7653;48.994;9.212;2023-03-04T05:11:26;-2.80;63.00
15105;DHT22;7653;48.994;9.212;2023-03-04T05:13:52;-2.80;61.90
15105;DHT22;7653;48.994;9.212;2023-03-04T05:16:18;-2.80;61.60
15105;DHT22;7653;48.994;9.212;2023-03-04T05:18:44;-3.00;60.20
15105;DHT22;7653;48.994;9.212;2023-03-04T05:21:10;-2.90;61.90
15105;DHT22;7653;48.994;9.212;2023-03-04T05:23:38;-3.20;60.70
15105;DHT22;7653;48.994;9.212;2023-03-04T05:26:05;-3.00;63.30
15105;DHT22;7653;48.994;9.212;2023-03-04T05:28:32;-2.80;62.50
15105;DHT22;7653;48.994;9.212;2023-03-04T05:30:57;-2.80;62.80
15105;DHT22;7653;48.994;9.212;2023-03-04T05:33:23;-2.70;63.40
15105;DHT22;7653;48.994;9.212;2023-03-04T05:35:49;-2.60;64.90
15105;DHT22;7653;48.994;9.212;2023-03-04T05:38:17;-2.60;66.90
15105;DHT22;7653;48.994;9.212;2023-03-04T05:40:43;-2.60;66.20
15105;DHT22;7653;48.994;9.212;2023-03-04T05:43:09;-2.50;67.70
15105;DHT22;7653;48.994;9.212;2023-03-04T05:45:36;-2.40;69.00
15105;DHT22;7653;48.994;9.212;2023-03-04T05:48:02;-2.30;69.00
15105;DHT22;7653;48.994;9.212;2023-03-04T05:50:28;-2.30;66.80
15105;DHT22;7653;48.994;9.212;2023-03-04T05:52:54;-2.50;63.90
15105;DHT22;7653;48.994;9.212;2023-03-04T05:55:20;-2.60;64.80
15105;DHT22;7653;48.994;9.212;2023-03-04T05:57:46;-2.50;64.50
15105;DHT22;7653;48.994;9.212;2023-03-04T06:00:13;-2.50;65.70
15105;DHT22;7653;48.994;9.212;2023-03-04T06:02:39;-2.30;65.40
15105;DHT22;7653;48.994;9.212;2023-03-04T06:05:06;-2.40;63.10
15105;DHT22;7653;48.994;9.212;2023-03-04T06:07:32;-2.50;61.70
15105;DHT22;7653;48.994;9.212;2023-03-04T06:09:58;-2.60;61.40
15105;DHT22;7653;48.994;9.212;2023-03-04T06:12:24;-2.70;63.00
15105;DHT22;7653;48.994;9.212;2023-03-04T06:14:50;-2.70;64.80
15105;DHT22;7653;48.994;9.212;2023-03-04T06:17:16;-2.70;66.90
15105;DHT22;7653;48.994;9.212;2023-03-04T06:19:41;-2.50;68.80
15105;DHT22;7653;48.994;9.212;2023-03-04T06:22:08;-2.40;69.40
15105;DHT22;7653;48.994;9.212;2023-03-04T06:24:34;-2.20;71.30
15105;DHT22;7653;48.994;9.212;2023-03-04T06:26:59;-2.20;70.30
15105;DHT22;7653;48.994;9.212;2023-03-04T06:29:25;-2.00;70.00
15105;DHT22;7653;48.994;9.212;2023-03-04T06:31:51;-1.80;69.70
15105;DHT22;7653;48.994;9.212;2023-03-04T06:34:17;-1.60;69.60
15105;DHT22;7653;48.994;9.212;2023-03-04T06:36:42;-1.60;67.20
15105;DHT22;7653;48.994;9.212;2023-03-04T06:39:08;-1.80;65.50
15105;DHT22;7653;48.994;9.212;2023-03-04T06:41:34;-1.80;66.90
15105;DHT22;7653;48.994;9.212;2023-03-04T06:44:00;-1.90;68.30
15105;DHT22;7653;48.994;9.212;2023-03-04T06:46:25;-1.90;70.50
15105;DHT22;7653;48.994;9.212;2023-03-04T06:48:52;-1.60;73.20
15105;DHT22;7653;48.994;9.212;2023-03-04T06:51:17;-1.40;72.90
15105;DHT22;7653;48.994;9.212;2023-03-04T06:53:43;-1.30;72.70
15105;DHT22;7653;48.994;9.212;2023-03-04T06:56:11;-1.10;72.40
15105;DHT22;7653;48.994;9.212;2023-03-04T06:58:41;-1.00;72.40
15105;DHT22;7653;48.994;9.212;2023-03-04T07:03:38;-1.20;71.40
15105;DHT22;7653;48.994;9.212;2023-03-04T07:06:03;-1.20;72.70
15105;DHT22;7653;48.994;9.212;2023-03-04T07:08:29;-1.10;74.40
15105;DHT22;7653;48.994;9.212;2023-03-04T07:10:55;-1.10;74.40
15105;DHT22;7653;48.994;9.212;2023-03-04T07:13:20;-1.10;74.60
15105;DHT22;7653;48.994;9.212;2023-03-04T07:15:46;-0.90;73.80
15105;DHT22;7653;48.994;9.212;2023-03-04T07:18:11;-0.80;75.70
15105;DHT22;7653;48.994;9.212;2023-03-04T07:20:37;-0.70;76.00
15105;DHT22;7653;48.994;9.212;2023-03-04T07:23:03;-0.70;74.80
15105;DHT22;7653;48.994;9.212;2023-03-04T07:25:28;-0.80;75.40
15105;DHT22;7653;48.994;9.212;2023-03-04T07:27:54;-0.60;76.40
15105;DHT22;7653;48.994;9.212;2023-03-04T07:30:20;-0.80;74.80
15105;DHT22;7653;48.994;9.212;2023-03-04T07:32:45;-0.80;76.10
15105;DHT22;7653;48.994;9.212;2023-03-04T07:35:11;-0.70;77.70
15105;DHT22;7653;48.994;9.212;2023-03-04T07:37:37;-0.40;79.80
15105;DHT22;7653;48.994;9.212;2023-03-04T07:40:05;-0.20;79.30
15105;DHT22;7653;48.994;9.212;2023-03-04T07:42:32;0.00;77.00
15105;DHT22;7653;48.994;9.212;2023-03-04T07:44:58;-0.10;73.30
15105;DHT22;7653;48.994;9.212;2023-03-04T07:47:26;-0.20;73.20
15105;DHT22;7653;48.994;9.212;2023-03-04T07:49:52;0.00;74.20
15105;DHT22;7653;48.994;9.212;2023-03-04T07:52:18;0.20;73.60
15105;DHT22;7653;48.994;9.212;2023-03-04T07:54:44;0.20;71.50
15105;DHT22;7653;48.994;9.212;2023-03-04T07:57:09;0.40;71.40
15105;DHT22;7653;48.994;9.212;2023-03-04T07:59:35;0.50;69.10
15105;DHT22;7653;48.994;9.212;2023-03-04T08:02:01;0.40;68.40
15105;DHT22;7653;48.994;9.212;2023-03-04T08:04:26;0.40;67.70
15105;DHT22;7653;48.994;9.212;2023-03-04T08:06:52;0.50;67.20
15105;DHT22;7653;48.994;9.212;2023-03-04T08:09:17;0.40;65.80
15105;DHT22;7653;48.994;9.212;2023-03-04T08:11:43;0.50;67.30
15105;DHT22;7653;48.994;9.212;2023-03-04T08:14:11;0.40;69.50
15105;DHT22;7653;48.994;9.212;2023-03-04T08:16:37;0.50;73.60
15105;DHT22;7653;48.994;9.212;2023-03-04T08:19:03;0.70;73.60
15105;DHT22;7653;48.994;9.212;2023-03-04T08:21:30;0.70;71.70
15105;DHT22;7653;48.994;9.212;2023-03-04T08:24:00;0.80;71.70
15105;DHT22;7653;48.994;9.212;2023-03-04T08:26:29;1.00;68.30
15105;DHT22;7653;48.994;9.212;2023-03-04T08:28:56;1.00;65.60
15105;DHT22;7653;48.994;9.212;2023-03-04T08:31:22;0.90;65.00
15105;DHT22;7653;48.994;9.212;2023-03-04T08:33:48;0.90;65.40
15105;DHT22;7653;48.994;9.212;2023-03-04T08:36:15;0.90;65.40
15105;DHT22;7653;48.994;9.212;2023-03-04T08:38:41;1.10;65.90
15105;DHT22;7653;48.994;9.212;2023-03-04T08:41:07;1.20;63.40
15105;DHT22;7653;48.994;9.212;2023-03-04T08:43:33;1.30;62.80
15105;DHT22;7653;48.994;9.212;2023-03-04T08:46:01;1.40;61.10
15105;DHT22;7653;48.994;9.212;2023-03-04T08:48:26;1.40;60.70
15105;DHT22;7653;48.994;9.212;2023-03-04T08:50:52;1.40;60.90
15105;DHT22;7653;48.994;9.212;2023-03-04T08:53:18;1.30;61.10
15105;DHT22;7653;48.994;9.212;2023-03-04T08:55:45;1.20;62.70
15105;DHT22;7653;48.994;9.212;2023-03-04T08:58:11;1.30;62.80
15105;DHT22;7653;48.994;9.212;2023-03-04T09:00:40;1.40;62.10
15105;DHT22;7653;48.994;9.212;2023-03-04T09:03:08;1.50;60.50
15105;DHT22;7653;48.994;9.212;2023-03-04T09:05:34;1.20;59.00
15105;DHT22;7653;48.994;9.212;2023-03-04T09:08:00;0.80;62.40
15105;DHT22;7653;48.994;9.212;2023-03-04T09:10:27;1.10;65.80
15105;DHT22;7653;48.994;9.212;2023-03-04T09:12:52;1.40;64.50
15105;DHT22;7653;48.994;9.212;2023-03-04T09:15:18;1.50;63.00
15105;DHT22;7653;48.994;9.212;2023-03-04T09:17:44;1.40;61.70
15105;DHT22;7653;48.994;9.212;2023-03-04T09:20:10;1.90;62.10
15105;DHT22;7653;48.994;9.212;2023-03-04T09:22:37;2.20;56.20
15105;DHT22;7653;48.994;9.212;2023-03-04T09:25:03;2.30;55.70
15105;DHT22;7653;48.994;9.212;2023-03-04T09:27:29;2.40;55.80
15105;DHT22;7653;48.994;9.212;2023-03-04T09:29:54;2.30;56.40
15105;DHT22;7653;48.994;9.212;2023-03-04T09:32:20;2.30;57.50
15105;DHT22;7653;48.994;9.212;2023-03-04T09:34:46;2.40;58.00
15105;DHT22;7653;48.994;9.212;2023-03-04T09:37:11;2.40;57.40
15105;DHT22;7653;48.994;9.212;2023-03-04T09:39:37;2.50;58.10
15105;DHT22;7653;48.994;9.212;2023-03-04T09:42:03;2.60;56.20
15105;DHT22;7653;48.994;9.212;2023-03-04T09:44:37;2.90;54.90
15105;DHT22;7653;48.994;9.212;2023-03-04T09:47:15;2.80;52.50
15105;DHT22;7653;48.994;9.212;2023-03-04T09:49:44;2.70;54.70
15105;DHT22;7653;48.994;9.212;2023-03-04T10:05:32;3.00;50.60
15105;DHT22;7653;48.994;9.212;2023-03-04T10:08:04;3.10;50.70
15105;DHT22;7653;48.994;9.212;2023-03-04T10:10:37;3.20;51.40
15105;DHT22;7653;48.994;9.212;2023-03-04T10:13:05;3.30;50.50
15105;DHT22;7653;48.994;9.212;2023-03-04T10:15:40;3.40;47.10
15105;DHT22;7653;48.994;9.212;2023-03-04T10:18:30;3.40;48.90
15105;DHT22;7653;48.994;9.212;2023-03-04T10:23:35;3.50;45.90
15105;DHT22;7653;48.994;9.212;2023-03-04T10:26:12;3.60;46.10
15105;DHT22;7653;48.994;9.212;2023-03-04T10:28:39;3.50;47.10
15105;DHT22;7653;48.994;9.212;2023-03-04T10:33:35;3.40;49.30
15105;DHT22;7653;48.994;9.212;2023-03-04T10:38:39;3.70;45.20
15105;DHT22;7653;48.994;9.212;2023-03-04T10:41:18;3.40;45.40
15105;DHT22;7653;48.994;9.212;2023-03-04T10:43:49;2.60;46.80
15105;DHT22;7653;48.994;9.212;2023-03-04T10:46:15;2.50;51.20
15105;DHT22;7653;48.994;9.212;2023-03-04T10:48:42;2.40;52.50
15105;DHT22;7653;48.994;9.212;2023-03-04T10:51:19;2.90;53.10
15105;DHT22;7653;48.994;9.212;2023-03-04T10:53:46;3.10;49.90
15105;DHT22;7653;48.994;9.212;2023-03-04T11:04:35;3.20;47.20
15105;DHT22;7653;48.994;9.212;2023-03-04T11:07:01;3.50;44.60
15105;DHT22;7653;48.994;9.212;2023-03-04T11:09:29;3.70;42.30
15105;DHT22;7653;48.994;9.212;2023-03-04T11:11:58;3.30;43.10
15105;DHT22;7653;48.994;9.212;2023-03-04T11:14:35;3.00;45.60
15105;DHT22;7653;48.994;9.212;2023-03-04T11:17:28;3.10;45.60
15105;DHT22;7653;48.994;9.212;2023-03-04T11:20:04;3.10;45.60
15105;DHT22;7653;48.994;9.212;2023-03-04T11:22:30;3.20;46.40
15105;DHT22;7653;48.994;9.212;2023-03-04T11:25:04;3.20;45.70
15105;DHT22;7653;48.994;9.212;2023-03-04T11:32:32;3.60;43.40
15105;DHT22;7653;48.994;9.212;2023-03-04T11:38:30;3.70;40.50
15105;DHT22;7653;48.994;9.212;2023-03-04T11:41:00;3.60;41.20
15105;DHT22;7653;48.994;9.212;2023-03-04T11:43:41;3.60;40.10
15105;DHT22;7653;48.994;9.212;2023-03-04T11:52:18;3.40;41.10
15105;DHT22;7653;48.994;9.212;2023-03-04T12:08:37;3.10;39.70
15105;DHT22;7653;48.994;9.212;2023-03-04T12:11:15;3.10;38.80
15105;DHT22;7653;48.994;9.212;2023-03-04T12:31:00;3.10;36.60
15105;DHT22;7653;48.994;9.212;2023-03-04T12:38:58;3.10;36.30
15105;DHT22;7653;48.994;9.212;2023-03-04T12:44:18;3.10;37.10
15105;DHT22;7653;48.994;9.212;2023-03-04T12:47:20;3.20;36.80
15105;DHT22;7653;48.994;9.212;2023-03-04T12:52:53;3.30;35.10
15105;DHT22;7653;48.994;9.212;2023-03-04T12:55:34;3.40;34.80
15105;DHT22;7653;48.994;9.212;2023-03-04T12:58:01;3.40;34.70
15105;DHT22;7653;48.994;9.212;2023-03-04T13:00:54;3.20;34.70
15105;DHT22;7653;48.994;9.212;2023-03-04T13:03:37;3.00;35.70
15105;DHT22;7653;48.994;9.212;2023-03-04T13:06:29;3.20;36.00
15105;DHT22;7653;48.994;9.212;2023-03-04T13:14:24;2.70;38.00
15105;DHT22;7653;48.994;9.212;2023-03-04T13:16:53;2.90;36.20
15105;DHT22;7653;48.994;9.212;2023-03-04T13:19:48;3.00;35.70
15105;DHT22;7653;48.994;9.212;2023-03-04T13:25:39;3.10;35.90
15105;DHT22;7653;48.994;9.212;2023-03-04T13:41:21;3.30;33.80
15105;DHT22;7653;48.994;9.212;2023-03-04T13:43:51;3.40;33.20
15105;DHT22;7653;48.994;9.212;2023-03-04T13:51:39;3.10;33.40
15105;DHT22;7653;48.994;9.212;2023-03-04T13:57:18;3.00;35.70
15105;DHT22;7653;48.994;9.212;2023-03-04T13:59:55;3.20;33.70
15105;DHT22;7653;48.994;9.212;2023-03-04T14:02:23;3.30;33.50
15105;DHT22;7653;48.994;9.212;2023-03-04T14:07:33;3.20;33.40
15105;DHT22;7653;48.994;9.212;2023-03-04T14:18:00;3.20;34.80
15105;DHT22;7653;48.994;9.212;2023-03-04T14:20:37;3.30;35.20
15105;DHT22;7653;48.994;9.212;2023-03-04T14:23:31;3.30;33.30
15105;DHT22;7653;48.994;9.212;2023-03-04T14:26:12;3.50;32.30
15105;DHT22;7653;48.994;9.212;2023-03-04T14:28:42;3.40;31.90
15105;DHT22;7653;48.994;9.212;2023-03-04T14:31:17;3.40;31.70
15105;DHT22;7653;48.994;9.212;2023-03-04T14:33:49;3.30;31.70
15105;DHT22;7653;48.994;9.212;2023-03-04T14:36:18;3.50;32.40
15105;DHT22;7653;48.994;9.212;2023-03-04T14:38:49;3.20;32.70
15105;DHT22;7653;48.994;9.212;2023-03-04T14:46:21;3.50;32.50
15105;DHT22;7653;48.994;9.212;2023-03-04T14:48:50;3.50;32.40
15105;DHT22;7653;48.994;9.212;2023-03-04T14:51:53;3.30;32.20
15105;DHT22;7653;48.994;9.212;2023-03-04T14:59:46;3.60;31.30
15105;DHT22;7653;48.994;9.212;2023-03-04T15:02:24;3.40;31.10
15105;DHT22;7653;48.994;9.212;2023-03-04T15:04:57;3.40;31.80
15105;DHT22;7653;48.994;9.212;2023-03-04T15:07:34;3.40;31.90
15105;DHT22;7653;48.994;9.212;2023-03-04T15:10:04;3.70;31.50
15105;DHT22;7653;48.994;9.212;2023-03-04T15:12:34;3.60;30.90
15105;DHT22;7653;48.994;9.212;2023-03-04T15:18:03;3.60;31.20
15105;DHT22;7653;48.994;9.212;2023-03-04T15:20:37;3.60;31.20
15105;DHT22;7653;48.994;9.212;2023-03-04T15:23:04;3.30;31.70
15105;DHT22;7653;48.994;9.212;2023-03-04T15:25:32;3.50;32.00
15105;DHT22;7653;48.994;9.212;2023-03-04T15:27:58;3.70;31.10
15105;DHT22;7653;48.994;9.212;2023-03-04T15:30:32;3.60;30.90
15105;DHT22;7653;48.994;9.212;2023-03-04T15:32:59;3.70;30.70
15105;DHT22;7653;48.994;9.212;2023-03-04T15:35:28;3.70;30.50
15105;DHT22;7653;48.994;9.212;2023-03-04T15:37:54;3.70;30.90
15105;DHT22;7653;48.994;9.212;2023-03-04T15:40:37;3.80;30.80
15105;DHT22;7653;48.994;9.212;2023-03-04T15:43:05;3.80;30.80
15105;DHT22;7653;48.994;9.212;2023-03-04T15:45:36;3.70;30.80
15105;DHT22;7653;48.994;9.212;2023-03-04T15:48:07;3.70;31.20
15105;DHT22;7653;48.994;9.212;2023-03-04T15:50:41;3.40;31.80
15105;DHT22;7653;48.994;9.212;2023-03-04T15:53:13;3.70;32.00
15105;DHT22;7653;48.994;9.212;2023-03-04T15:55:43;3.80;31.40
15105;DHT22;7653;48.994;9.212;2023-03-04T15:58:10;3.70;31.30
15105;DHT22;7653;48.994;9.212;2023-03-04T16:00:36;3.50;32.20
15105;DHT22;7653;48.994;9.212;2023-03-04T16:03:02;3.70;32.20
15105;DHT22;7653;48.994;9.212;2023-03-04T16:05:28;3.70;31.40
15105;DHT22;7653;48.994;9.212;2023-03-04T16:07:53;3.70;31.40
15105;DHT22;7653;48.994;9.212;2023-03-04T16:10:31;3.70;31.90
15105;DHT22;7653;48.994;9.212;2023-03-04T16:12:58;3.70;31.80
15105;DHT22;7653;48.994;9.212;2023-03-04T16:15:28;3.70;31.80
15105;DHT22;7653;48.994;9.212;2023-03-04T16:17:55;3.70;32.40
15105;DHT22;7653;48.994;9.212;2023-03-04T16:20:23;3.60;33.30
15105;DHT22;7653;48.994;9.212;2023-03-04T16:22:56;3.70;32.00
15105;DHT22;7653;48.994;9.212;2023-03-04T16:25:23;3.80;31.50
15105;DHT22;7653;48.994;9.212;2023-03-04T16:27:50;3.70;31.80
15105;DHT22;7653;48.994;9.212;2023-03-04T16:30:19;3.60;32.50
15105;DHT22;7653;48.994;9.212;2023-03-04T16:32:46;3.70;32.30
15105;DHT22;7653;48.994;9.212;2023-03-04T16:35:13;3.70;31.40
15105;DHT22;7653;48.994;9.212;2023-03-04T16:37:39;3.70;32.20
15105;DHT22;7653;48.994;9.212;2023-03-04T16:40:12;3.80;32.10
15105;DHT22;7653;48.994;9.212;2023-03-04T16:42:38;3.80;32.10
15105;DHT22;7653;48.994;9.212;2023-03-04T16:45:06;3.80;32.30
15105;DHT22;7653;48.994;9.212;2023-03-04T16:47:32;3.80;32.30
15105;DHT22;7653;48.994;9.212;2023-03-04T16:49:59;3.80;32.70
15105;DHT22;7653;48.994;9.212;2023-03-04T16:52:28;3.80;33.20
15105;DHT22;7653;48.994;9.212;2023-03-04T16:54:56;3.90;33.10
15105;DHT22;7653;48.994;9.212;2023-03-04T16:57:22;3.90;32.90
15105;DHT22;7653;48.994;9.212;2023-03-04T16:59:48;3.90;33.00
15105;DHT22;7653;48.994;9.212;2023-03-04T17:02:19;3.90;33.80
15105;DHT22;7653;48.994;9.212;2023-03-04T17:04:48;3.80;35.60
15105;DHT22;7653;48.994;9.212;2023-03-04T17:07:15;3.90;35.20
15105;DHT22;7653;48.994;9.212;2023-03-04T17:09:41;3.80;36.50
15105;DHT22;7653;48.994;9.212;2023-03-04T17:12:10;3.70;36.30
15105;DHT22;7653;48.994;9.212;2023-03-04T17:14:37;3.60;36.30
15105;DHT22;7653;48.994;9.212;2023-03-04T17:17:04;3.70;36.30
15105;DHT22;7653;48.994;9.212;2023-03-04T17:19:31;3.80;35.60
15105;DHT22;7653;48.994;9.212;2023-03-04T17:21:58;3.80;36.40
15105;DHT22;7653;48.994;9.212;2023-03-04T17:24:25;3.60;36.20
15105;DHT22;7653;48.994;9.212;2023-03-04T17:26:50;3.60;37.00
15105;DHT22;7653;48.994;9.212;2023-03-04T17:29:16;3.60;36.30
15105;DHT22;7653;48.994;9.212;2023-03-04T17:31:42;3.50;37.60
15105;DHT22;7653;48.994;9.212;2023-03-04T17:34:08;3.50;38.60
15105;DHT22;7653;48.994;9.212;2023-03-04T17:36:34;3.50;38.60
15105;DHT22;7653;48.994;9.212;2023-03-04T17:39:01;3.50;39.00
15105;DHT22;7653;48.994;9.212;2023-03-04T17:41:26;3.60;38.40
15105;DHT22;7653;48.994;9.212;2023-03-04T17:43:52;3.70;37.50
15105;DHT22;7653;48.994;9.212;2023-03-04T17:46:20;3.60;38.40
15105;DHT22;7653;48.994;9.212;2023-03-04T17:48:47;3.70;38.10
15105;DHT22;7653;48.994;9.212;2023-03-04T17:51:13;3.70;37.90
15105;DHT22;7653;48.994;9.212;2023-03-04T17:53:39;3.50;39.60
15105;DHT22;7653;48.994;9.212;2023-03-04T17:56:06;3.40;40.80
15105;DHT22;7653;48.994;9.212;2023-03-04T17:58:34;3.40;41.00
15105;DHT22;7653;48.994;9.212;2023-03-04T18:01:08;3.40;41.90
15105;DHT22;7653;48.994;9.212;2023-03-04T18:03:35;3.40;42.20
15105;DHT22;7653;48.994;9.212;2023-03-04T18:06:01;3.30;43.20
15105;DHT22;7653;48.994;9.212;2023-03-04T18:08:27;3.40;42.90
15105;DHT22;7653;48.994;9.212;2023-03-04T18:10:52;3.40;42.10
15105;DHT22;7653;48.994;9.212;2023-03-04T18:13:18;3.50;41.80
15105;DHT22;7653;48.994;9.212;2023-03-04T18:15:45;3.60;42.20
15105;DHT22;7653;48.994;9.212;2023-03-04T18:18:11;3.60;42.00
15105;DHT22;7653;48.994;9.212;2023-03-04T18:20:36;3.50;42.00
15105;DHT22;7653;48.994;9.212;2023-03-04T18:23:02;3.60;41.40
15105;DHT22;7653;48.994;9.212;2023-03-04T18:25:28;3.60;41.60
15105;DHT22;7653;48.994;9.212;2023-03-04T18:27:53;3.60;42.50